createdAt,value
2022-07-25T00:01:20.694Z,100.00
2022-07-25T00:03:48.736Z,100.00
2022-07-25T00:06:17.768Z,100.00
2022-07-25T00:08:46.054Z,100.00
2022-07-25T00:11:15.248Z,100.00
2022-07-25T00:13:43.061Z,100.00
2022-07-25T00:16:11.271Z,100.00
2022-07-25T00:18:39.211Z,100.00
2022-07-25T00:21:07.373Z,100.00
2022-07-25T00:23:35.266Z,100.00
2022-07-25T00:26:03.064Z,100.00
2022-07-25T00:28:32.245Z,100.00
2022-07-25T00:31:00.167Z,100.00
2022-07-25T00:33:28.183Z,100.00
2022-07-25T00:35:56.051Z,100.00
2022-07-25T00:38:23.958Z,100.00
2022-07-25T00:40:54.344Z,100.00
2022-07-25T00:43:23.752Z,100.00
2022-07-25T00:45:52.994Z,100.00
2022-07-25T00:48:21.143Z,100.00
2022-07-25T00:50:49.219Z,100.00
2022-07-25T00:53:17.314Z,100.00
2022-07-25T00:55:45.212Z,100.00
2022-07-25T00:58:13.768Z,100.00
2022-07-25T01:00:41.741Z,100.00
2022-07-25T01:03:11.100Z,100.00
2022-07-25T01:05:39.166Z,100.00
2022-07-25T01:08:07.400Z,100.00
2022-07-25T01:10:36.133Z,100.00
2022-07-25T01:13:04.082Z,100.00
2022-07-25T01:15:32.219Z,100.00
2022-07-25T01:18:00.149Z,100.00
2022-07-25T01:20:31.902Z,100.00
2022-07-25T01:23:01.279Z,100.00
2022-07-25T01:25:29.624Z,100.00
2022-07-25T01:27:57.851Z,100.00
2022-07-25T01:30:26.360Z,100.00
2022-07-25T01:32:54.491Z,100.00
2022-07-25T01:35:22.338Z,100.00
2022-07-25T01:37:51.534Z,100.00
2022-07-25T01:40:19.396Z,100.00
2022-07-25T01:42:47.475Z,100.00
2022-07-25T01:45:15.615Z,100.00
2022-07-25T01:47:43.478Z,100.00
2022-07-25T01:50:11.718Z,100.00
2022-07-25T01:52:40.412Z,100.00
2022-07-25T01:55:10.628Z,100.00
2022-07-25T01:57:39.286Z,100.00
2022-07-25T02:00:11.854Z,100.00
2022-07-25T02:02:39.682Z,100.00
2022-07-25T02:05:08.321Z,100.00
2022-07-25T02:07:36.242Z,100.00
2022-07-25T02:10:05.832Z,100.00
2022-07-25T02:12:35.202Z,100.00
2022-07-25T02:15:03.123Z,100.00
2022-07-25T02:17:31.151Z,100.00
2022-07-25T02:19:59.067Z,100.00
2022-07-25T02:22:26.856Z,100.00
2022-07-25T02:24:54.674Z,100.00
2022-07-25T02:27:22.539Z,100.00
2022-07-25T02:29:51.791Z,100.00
2022-07-25T02:32:19.781Z,100.00
2022-07-25T02:34:47.631Z,100.00
2022-07-25T02:37:16.536Z,100.00
2022-07-25T02:39:44.362Z,100.00
2022-07-25T02:42:12.237Z,100.00
2022-07-25T02:44:40.066Z,100.00
2022-07-25T02:47:09.279Z,100.00
2022-07-25T02:49:37.180Z,100.00
2022-07-25T02:52:05.528Z,100.00
2022-07-25T02:54:33.412Z,100.00
2022-07-25T02:57:01.226Z,100.00
2022-07-25T02:59:32.422Z,100.00
2022-07-25T03:02:00.759Z,100.00
2022-07-25T03:04:31.115Z,100.00
2022-07-25T03:06:59.020Z,100.00
2022-07-25T03:09:26.804Z,100.00
2022-07-25T03:11:54.664Z,100.00
2022-07-25T03:14:22.539Z,100.00
2022-07-25T03:16:51.551Z,100.00
2022-07-25T03:19:19.455Z,100.00
2022-07-25T03:21:48.637Z,100.00
2022-07-25T03:24:16.538Z,100.00
2022-07-25T03:26:45.488Z,100.00
2022-07-25T03:29:13.375Z,100.00
2022-07-25T03:31:41.307Z,100.00
2022-07-25T03:34:09.521Z,100.00
2022-07-25T03:36:37.627Z,100.00
2022-07-25T03:39:06.838Z,100.00
2022-07-25T03:41:34.818Z,100.00
2022-07-25T03:44:02.971Z,100.00
2022-07-25T03:46:31.135Z,100.00
2022-07-25T03:48:59.090Z,100.00
2022-07-25T03:51:27.111Z,100.00
2022-07-25T03:54:04.495Z,100.00
2022-07-25T03:56:41.538Z,100.00
2022-07-25T03:59:13.702Z,100.00
2022-07-25T04:01:42.213Z,100.00
2022-07-25T04:04:10.906Z,100.00
2022-07-25T04:06:39.553Z,100.00
2022-07-25T04:09:08.733Z,100.00
2022-07-25T04:11:38.414Z,100.00
2022-07-25T04:14:07.100Z,100.00
2022-07-25T04:16:35.977Z,100.00
2022-07-25T04:19:06.232Z,100.00
2022-07-25T04:21:34.538Z,100.00
2022-07-25T04:24:02.632Z,100.00
2022-07-25T04:26:30.654Z,100.00
2022-07-25T04:29:03.298Z,100.00
2022-07-25T04:31:31.587Z,100.00
2022-07-25T04:33:59.911Z,100.00
2022-07-25T04:36:27.821Z,100.00
2022-07-25T04:38:55.653Z,100.00
2022-07-25T04:41:23.516Z,100.00
2022-07-25T04:43:51.380Z,100.00
2022-07-25T04:46:21.501Z,100.00
2022-07-25T04:48:49.971Z,100.00
2022-07-25T04:51:18.024Z,100.00
2022-07-25T04:53:45.991Z,100.00
2022-07-25T04:56:14.109Z,100.00
2022-07-25T04:58:41.964Z,100.00
2022-07-25T05:01:09.935Z,100.00
2022-07-25T05:03:39.285Z,100.00
2022-07-25T05:06:07.789Z,100.00
2022-07-25T05:08:35.602Z,100.00
2022-07-25T05:11:03.416Z,100.00
2022-07-25T05:13:31.293Z,100.00
2022-07-25T05:15:59.202Z,100.00
2022-07-25T05:18:27.076Z,100.00
2022-07-25T05:20:56.490Z,100.00
2022-07-25T05:23:24.285Z,100.00
2022-07-25T05:25:52.140Z,100.00
2022-07-25T05:28:19.918Z,100.00
2022-07-25T05:30:47.715Z,100.00
2022-07-25T05:33:15.610Z,100.00
2022-07-25T05:35:43.603Z,100.00
2022-07-25T05:38:12.805Z,100.00
2022-07-25T05:40:40.692Z,100.00
2022-07-25T05:43:08.926Z,100.00
2022-07-25T05:45:36.751Z,100.00
2022-07-25T05:48:04.751Z,100.00
2022-07-25T05:50:32.625Z,100.00
2022-07-25T05:53:00.467Z,100.00
2022-07-25T05:55:29.787Z,100.00
2022-07-25T05:57:58.731Z,100.00
2022-07-25T06:00:26.969Z,100.00
2022-07-25T06:02:54.947Z,100.00
2022-07-25T06:05:23.115Z,100.00
2022-07-25T06:07:50.952Z,100.00
2022-07-25T06:10:19.008Z,100.00
2022-07-25T06:12:48.240Z,100.00
2022-07-25T06:15:23.074Z,100.00
2022-07-25T06:17:55.137Z,100.00
2022-07-25T06:20:23.127Z,100.00
2022-07-25T06:22:51.206Z,100.00
2022-07-25T06:25:19.025Z,100.00
2022-07-25T06:27:50.486Z,100.00
2022-07-25T06:30:20.618Z,100.00
2022-07-25T06:32:48.904Z,100.00
2022-07-25T06:35:17.387Z,100.00
2022-07-25T06:37:45.230Z,100.00
2022-07-25T06:40:13.742Z,100.00
2022-07-25T06:42:42.969Z,100.00
2022-07-25T06:45:12.505Z,100.00
2022-07-25T06:47:43.582Z,100.00
2022-07-25T06:50:15.580Z,100.00
2022-07-25T06:52:43.715Z,100.00
2022-07-25T06:55:12.982Z,100.00
2022-07-25T06:57:42.419Z,100.00
2022-07-25T07:00:12.973Z,100.00
2022-07-25T07:02:52.172Z,100.00
2022-07-25T07:05:20.421Z,100.00
2022-07-25T07:07:48.448Z,100.00
2022-07-25T07:10:16.919Z,100.00
2022-07-25T07:12:45.317Z,100.00
2022-07-25T07:15:13.682Z,100.00
2022-07-25T07:17:41.841Z,100.00
2022-07-25T07:20:11.960Z,100.00
2022-07-25T07:22:46.423Z,100.00
2022-07-25T07:25:15.822Z,100.00
2022-07-25T07:27:44.445Z,100.00
2022-07-25T07:30:14.791Z,100.00
2022-07-25T07:32:42.825Z,100.00
2022-07-25T07:35:13.062Z,100.00
2022-07-25T07:37:43.575Z,100.00
2022-07-25T07:40:17.694Z,100.00
2022-07-25T07:42:48.424Z,100.00
2022-07-25T07:45:17.868Z,100.00
2022-07-25T07:47:47.994Z,100.00
2022-07-25T07:50:19.397Z,100.00
2022-07-25T07:52:47.779Z,100.00
2022-07-25T07:55:33.870Z,100.00
2022-07-25T07:58:02.508Z,100.00
2022-07-25T08:00:31.972Z,100.00
2022-07-25T08:03:00.563Z,100.00
2022-07-25T08:05:32.364Z,100.00
2022-07-25T08:08:01.426Z,100.00
2022-07-25T08:10:31.212Z,100.00
2022-07-25T08:13:00.080Z,100.00
2022-07-25T08:15:28.251Z,100.00
2022-07-25T08:17:56.509Z,100.00
2022-07-25T08:20:39.677Z,100.00
2022-07-25T08:23:11.084Z,100.00
2022-07-25T08:25:39.276Z,100.00
2022-07-25T08:28:07.430Z,100.00
2022-07-25T08:30:37.772Z,87.45
2022-07-25T08:33:09.706Z,88.17
2022-07-25T08:35:38.575Z,87.00
2022-07-25T08:38:06.808Z,89.83
2022-07-25T08:40:36.190Z,88.26
2022-07-25T08:43:05.646Z,86.64
2022-07-25T08:45:34.069Z,87.57
2022-07-25T08:48:01.940Z,87.28
2022-07-25T08:50:31.017Z,88.78
2022-07-25T08:53:31.022Z,87.67
2022-07-25T08:55:48.306Z,87.39
2022-07-25T08:58:17.432Z,81.77
2022-07-25T09:00:45.733Z,79.48
2022-07-25T09:03:13.867Z,78.74
2022-07-25T09:05:42.429Z,78.54
2022-07-25T09:08:12.064Z,77.97
2022-07-25T09:10:42.364Z,76.46
2022-07-25T09:13:14.909Z,75.32
2022-07-25T09:15:46.400Z,70.33
2022-07-25T09:18:17.117Z,70.68
2022-07-25T09:20:48.162Z,66.50
2022-07-25T09:23:28.148Z,68.55
2022-07-25T09:26:04.532Z,68.18
2022-07-25T09:28:33.971Z,66.73
2022-07-25T09:31:03.095Z,64.58
2022-07-25T09:33:31.312Z,60.76
2022-07-25T09:35:59.389Z,61.72
2022-07-25T09:38:27.975Z,58.43
2022-07-25T09:40:58.173Z,53.72
2022-07-25T09:43:37.989Z,53.22
2022-07-25T09:46:06.886Z,52.21
2022-07-25T09:48:35.394Z,52.96
2022-07-25T09:51:03.509Z,52.60
2022-07-25T09:53:31.495Z,54.21
2022-07-25T09:55:59.461Z,53.71
2022-07-25T09:58:28.051Z,51.76
2022-07-25T10:01:01.929Z,53.59
2022-07-25T10:03:43.421Z,48.42
2022-07-25T10:06:20.680Z,48.92
2022-07-25T10:08:50.047Z,48.91
2022-07-25T10:11:22.793Z,47.24
2022-07-25T10:13:51.015Z,45.84
2022-07-25T10:16:21.477Z,46.53
2022-07-25T10:18:51.447Z,46.65
2022-07-25T10:21:26.936Z,45.64
2022-07-25T10:24:00.772Z,45.95
2022-07-25T10:26:28.715Z,47.21
2022-07-25T10:28:57.126Z,47.29
2022-07-25T10:31:34.871Z,45.32
2022-07-25T10:34:06.357Z,44.87
2022-07-25T10:36:46.159Z,43.08
2022-07-25T10:39:15.897Z,41.60
2022-07-25T10:41:46.352Z,40.38
2022-07-25T10:44:16.225Z,38.95
2022-07-25T10:46:46.145Z,37.93
2022-07-25T10:49:21.807Z,35.84
2022-07-25T10:51:57.616Z,35.59
2022-07-25T10:54:26.146Z,34.93
2022-07-25T10:56:58.676Z,35.07
2022-07-25T10:59:31.574Z,34.82
2022-07-25T11:02:01.600Z,34.26
2022-07-25T11:04:30.136Z,34.56
2022-07-25T11:06:58.462Z,34.26
2022-07-25T11:09:28.476Z,33.73
2022-07-25T11:11:58.638Z,33.73
2022-07-25T11:14:31.221Z,33.69
2022-07-25T11:17:13.199Z,32.79
2022-07-25T11:19:41.972Z,32.60
2022-07-25T11:22:10.794Z,31.52
2022-07-25T11:24:40.706Z,31.83
2022-07-25T11:27:12.754Z,31.98
2022-07-25T11:29:41.734Z,32.58
2022-07-25T11:32:12.718Z,31.25
2022-07-25T11:34:43.756Z,30.72
2022-07-25T11:37:14.416Z,30.54
2022-07-25T11:39:44.657Z,30.55
2022-07-25T11:42:16.316Z,30.23
2022-07-25T11:44:48.029Z,29.79
2022-07-25T11:47:28.586Z,30.54
2022-07-25T11:49:58.355Z,30.42
2022-07-25T11:52:29.738Z,30.01
2022-07-25T11:54:59.116Z,30.28
2022-07-25T11:57:28.995Z,29.88
2022-07-25T11:59:57.460Z,29.73
2022-07-25T12:02:30.894Z,30.28
2022-07-25T12:05:01.412Z,29.76
2022-07-25T12:07:47.820Z,29.89
2022-07-25T12:10:17.558Z,29.99
2022-07-25T12:12:48.599Z,30.25
2022-07-25T12:15:19.029Z,30.29
2022-07-25T12:17:48.458Z,30.26
2022-07-25T12:20:17.490Z,30.18
2022-07-25T12:22:46.163Z,30.34
2022-07-25T12:25:14.136Z,29.80
2022-07-25T12:27:42.929Z,29.62
2022-07-25T12:30:12.427Z,29.78
2022-07-25T12:32:40.329Z,29.95
2022-07-25T12:35:11.559Z,30.39
2022-07-25T12:37:41.313Z,30.70
2022-07-25T12:40:10.341Z,30.66
2022-07-25T12:42:38.159Z,30.60
2022-07-25T12:45:07.716Z,29.69
2022-07-25T12:47:36.038Z,29.79
2022-07-25T12:50:05.239Z,29.97
2022-07-25T12:52:34.805Z,30.66
2022-07-25T12:55:03.097Z,30.73
2022-07-25T12:57:30.942Z,29.92
2022-07-25T12:59:58.902Z,29.90
2022-07-25T13:02:26.864Z,29.71
2022-07-25T13:04:54.727Z,29.75
2022-07-25T13:07:22.667Z,29.58
2022-07-25T13:09:51.965Z,29.57
2022-07-25T13:12:19.752Z,29.22
2022-07-25T13:14:47.869Z,29.07
2022-07-25T13:17:15.745Z,29.48
2022-07-25T13:19:43.585Z,29.45
2022-07-25T13:22:11.519Z,29.29
2022-07-25T13:24:40.352Z,28.64
2022-07-25T13:27:09.743Z,29.28
2022-07-25T13:29:37.660Z,29.49
2022-07-25T13:32:06.512Z,29.60
2022-07-25T13:34:34.417Z,28.97
2022-07-25T13:37:02.318Z,28.93
2022-07-25T13:39:30.129Z,28.46
2022-07-25T13:41:58.005Z,28.53
2022-07-25T13:44:27.213Z,28.64
2022-07-25T13:46:55.093Z,28.66
2022-07-25T13:49:22.987Z,28.68
2022-07-25T13:51:50.953Z,28.43
2022-07-25T13:54:18.845Z,28.32
2022-07-25T13:56:47.447Z,28.18
2022-07-25T13:59:20.943Z,28.33
2022-07-25T14:01:50.897Z,28.06
2022-07-25T14:04:19.627Z,27.81
2022-07-25T14:06:51.754Z,27.69
2022-07-25T14:09:20.699Z,27.88
2022-07-25T14:11:49.216Z,27.24
2022-07-25T14:14:17.129Z,27.17
2022-07-25T14:16:45.371Z,27.27
2022-07-25T14:19:14.611Z,26.55
2022-07-25T14:21:42.557Z,27.30
2022-07-25T14:24:10.421Z,27.23
2022-07-25T14:26:38.286Z,27.22
2022-07-25T14:29:11.098Z,27.28
2022-07-25T14:31:40.580Z,27.13
2022-07-25T14:34:08.777Z,27.05
2022-07-25T14:36:37.988Z,26.83
2022-07-25T14:39:06.638Z,26.41
2022-07-25T14:41:35.249Z,27.33
2022-07-25T14:44:03.067Z,27.24
2022-07-25T14:46:31.098Z,26.46
2022-07-25T14:48:59.464Z,26.49
2022-07-25T14:51:28.517Z,26.67
2022-07-25T14:53:57.751Z,26.31
2022-07-25T14:56:25.940Z,26.64
2022-07-25T14:58:53.776Z,26.57
2022-07-25T15:01:24.391Z,26.58
2022-07-25T15:03:52.576Z,26.69
2022-07-25T15:06:21.248Z,26.04
2022-07-25T15:08:51.859Z,26.02
2022-07-25T15:11:21.737Z,25.83
2022-07-25T15:13:50.283Z,26.03
2022-07-25T15:16:18.410Z,26.03
2022-07-25T15:19:13.498Z,25.98
2022-07-25T15:21:34.614Z,25.61
2022-07-25T15:24:02.688Z,25.61
2022-07-25T15:26:32.370Z,25.89
2022-07-25T15:29:00.287Z,25.58
2022-07-25T15:31:28.611Z,26.07
2022-07-25T15:33:56.506Z,26.02
2022-07-25T15:36:29.124Z,25.79
2022-07-25T15:38:57.516Z,24.39
2022-07-25T15:41:26.532Z,23.75
2022-07-25T15:43:55.717Z,24.76
2022-07-25T15:46:23.666Z,25.03
2022-07-25T15:48:51.627Z,23.95
2022-07-25T15:51:20.035Z,24.10
2022-07-25T15:53:47.866Z,24.17
2022-07-25T15:56:16.095Z,24.23
2022-07-25T15:58:44.409Z,24.32
2022-07-25T16:01:13.674Z,24.41
2022-07-25T16:03:41.634Z,24.26
2022-07-25T16:06:10.037Z,24.01
2022-07-25T16:08:38.329Z,24.33
2022-07-25T16:11:06.473Z,23.61
2022-07-25T16:13:34.393Z,23.45
2022-07-25T16:16:02.277Z,23.57
2022-07-25T16:18:32.310Z,23.86
2022-07-25T16:21:00.133Z,24.16
2022-07-25T16:23:28.207Z,23.61
2022-07-25T16:25:56.052Z,23.84
2022-07-25T16:28:23.901Z,23.91
2022-07-25T16:30:52.141Z,24.14
2022-07-25T16:33:20.124Z,24.06
2022-07-25T16:35:49.711Z,24.88
2022-07-25T16:38:18.050Z,24.83
2022-07-25T16:40:45.943Z,24.84
2022-07-25T16:43:13.851Z,24.58
2022-07-25T16:45:43.082Z,25.32
2022-07-25T16:48:11.023Z,25.38
2022-07-25T16:50:38.856Z,25.79
2022-07-25T16:53:08.281Z,25.97
2022-07-25T16:55:36.171Z,25.88
2022-07-25T16:58:04.063Z,26.47
2022-07-25T17:00:32.738Z,27.04
2022-07-25T17:03:02.092Z,27.26
2022-07-25T17:05:30.016Z,27.50
2022-07-25T17:07:59.621Z,27.28
2022-07-25T17:10:31.491Z,28.24
2022-07-25T17:13:00.368Z,28.45
2022-07-25T17:15:28.362Z,28.50
2022-07-25T17:17:56.297Z,28.76
2022-07-25T17:20:24.467Z,29.51
2022-07-25T17:22:52.324Z,29.62
2022-07-25T17:25:20.253Z,29.87
2022-07-25T17:27:49.448Z,30.39
2022-07-25T17:30:17.314Z,30.67
2022-07-25T17:32:45.332Z,30.55
2022-07-25T17:35:13.393Z,30.41
2022-07-25T17:37:41.513Z,30.41
2022-07-25T17:40:10.796Z,31.11
2022-07-25T17:42:44.602Z,31.60
2022-07-25T17:45:15.337Z,31.69
2022-07-25T17:47:44.087Z,32.10
2022-07-25T17:50:12.531Z,32.36
2022-07-25T17:52:40.587Z,32.14
2022-07-25T17:55:09.030Z,32.72
2022-07-25T17:57:37.641Z,32.69
2022-07-25T18:00:06.701Z,33.14
2022-07-25T18:02:41.016Z,32.64
2022-07-25T18:05:09.585Z,33.23
2022-07-25T18:07:40.668Z,33.81
2022-07-25T18:10:09.013Z,33.55
2022-07-25T18:12:39.359Z,33.96
2022-07-25T18:15:08.537Z,34.25
2022-07-25T18:17:36.526Z,33.97
2022-07-25T18:20:06.372Z,34.38
2022-07-25T18:22:34.672Z,34.53
2022-07-25T18:25:02.670Z,34.52
2022-07-25T18:27:30.618Z,35.59
2022-07-25T18:29:58.588Z,35.88
2022-07-25T18:32:26.470Z,36.17
2022-07-25T18:34:54.365Z,36.04
2022-07-25T18:37:23.614Z,37.29
2022-07-25T18:39:51.524Z,38.82
2022-07-25T18:42:19.480Z,40.64
2022-07-25T18:44:47.469Z,42.00
2022-07-25T18:47:15.531Z,43.76
2022-07-25T18:49:43.395Z,44.93
2022-07-25T18:52:11.299Z,45.96
2022-07-25T18:54:40.610Z,46.27
2022-07-25T18:57:08.608Z,48.04
2022-07-25T18:59:37.047Z,47.91
2022-07-25T19:02:05.344Z,48.67
2022-07-25T19:04:33.331Z,49.49
2022-07-25T19:07:01.327Z,50.51
2022-07-25T19:09:29.232Z,51.81
2022-07-25T19:11:58.476Z,52.87
2022-07-25T19:14:27.381Z,54.91
2022-07-25T19:16:57.468Z,55.56
2022-07-25T19:19:25.959Z,56.82
2022-07-25T19:21:54.486Z,58.81
2022-07-25T19:24:22.914Z,60.21
2022-07-25T19:26:50.909Z,60.05
2022-07-25T19:29:20.985Z,63.76
2022-07-25T19:31:48.891Z,63.22
2022-07-25T19:34:16.760Z,67.15
2022-07-25T19:36:45.975Z,66.79
2022-07-25T19:39:14.540Z,67.56
2022-07-25T19:41:46.642Z,68.45
2022-07-25T19:44:15.275Z,70.90
2022-07-25T19:46:44.863Z,69.41
2022-07-25T19:49:13.203Z,71.13
2022-07-25T19:51:41.404Z,71.38
2022-07-25T19:54:10.005Z,73.44
2022-07-25T19:56:38.312Z,78.93
2022-07-25T19:59:06.540Z,75.85
2022-07-25T20:01:35.916Z,76.82
2022-07-25T20:04:09.070Z,72.36
2022-07-25T20:06:37.370Z,73.14
2022-07-25T20:09:06.797Z,74.90
2022-07-25T20:11:34.903Z,76.49
2022-07-25T20:14:02.751Z,79.50
2022-07-25T20:16:30.891Z,82.21
2022-07-25T20:19:00.222Z,86.16
2022-07-25T20:21:29.612Z,98.09
2022-07-25T20:23:57.677Z,100.00
2022-07-25T20:26:25.608Z,100.00
2022-07-25T20:28:53.806Z,100.00
2022-07-25T20:31:24.308Z,100.00
2022-07-25T20:33:52.687Z,100.00
2022-07-25T20:36:21.232Z,100.00
2022-07-25T20:38:51.136Z,100.00
2022-07-25T20:41:19.602Z,100.00
2022-07-25T20:43:47.485Z,100.00
2022-07-25T20:46:15.361Z,100.00
2022-07-25T20:48:43.357Z,100.00
2022-07-25T20:51:12.924Z,100.00
2022-07-25T20:53:41.816Z,100.00
2022-07-25T20:56:11.127Z,100.00
2022-07-25T20:58:39.663Z,100.00
2022-07-25T21:01:07.532Z,100.00
2022-07-25T21:03:36.030Z,100.00
2022-07-25T21:06:03.908Z,100.00
2022-07-25T21:08:31.779Z,100.00
2022-07-25T21:11:00.839Z,100.00
2022-07-25T21:13:31.574Z,100.00
2022-07-25T21:16:00.980Z,100.00
2022-07-25T21:18:28.970Z,100.00
2022-07-25T21:20:56.838Z,100.00
2022-07-25T21:23:26.331Z,100.00
2022-07-25T21:25:54.223Z,100.00
2022-07-25T21:28:22.115Z,100.00
2022-07-25T21:30:51.457Z,100.00
2022-07-25T21:33:19.297Z,100.00
2022-07-25T21:35:51.807Z,100.00
2022-07-25T21:38:26.653Z,100.00
2022-07-25T21:40:56.383Z,100.00
2022-07-25T21:43:24.255Z,100.00
2022-07-25T21:45:53.933Z,100.00
2022-07-25T21:48:43.871Z,100.00
2022-07-25T21:51:19.211Z,100.00
2022-07-25T21:53:51.402Z,100.00
2022-07-25T21:56:19.909Z,100.00
2022-07-25T21:58:48.063Z,100.00
2022-07-25T22:01:17.646Z,100.00
2022-07-25T22:03:45.628Z,100.00
2022-07-25T22:06:13.603Z,100.00
2022-07-25T22:08:41.441Z,100.00
2022-07-25T22:11:16.082Z,100.00
2022-07-25T22:13:57.914Z,100.00
2022-07-25T22:16:27.985Z,100.00
2022-07-25T22:18:57.142Z,100.00
2022-07-25T22:21:25.121Z,100.00
2022-07-25T22:23:52.938Z,100.00
2022-07-25T22:26:20.918Z,100.00
2022-07-25T22:28:50.638Z,100.00
2022-07-25T22:31:18.952Z,100.00
2022-07-25T22:33:48.221Z,100.00
2022-07-25T22:36:16.044Z,100.00
2022-07-25T22:38:43.942Z,100.00
2022-07-25T22:41:12.568Z,100.00
2022-07-25T22:43:58.773Z,100.00
2022-07-25T22:46:28.458Z,100.00
2022-07-25T22:48:58.769Z,100.00
2022-07-25T22:51:27.455Z,100.00
2022-07-25T22:53:55.333Z,100.00
2022-07-25T22:56:23.498Z,100.00
2022-07-25T22:58:51.334Z,100.00
2022-07-25T23:01:19.491Z,100.00
2022-07-25T23:03:49.781Z,100.00
2022-07-25T23:06:20.689Z,100.00
2022-07-25T23:08:48.985Z,100.00
2022-07-25T23:11:17.261Z,100.00
2022-07-25T23:13:45.294Z,100.00
2022-07-25T23:16:13.366Z,100.00
2022-07-25T23:18:41.295Z,100.00
2022-07-25T23:21:09.256Z,100.00
2022-07-25T23:23:38.513Z,100.00
2022-07-25T23:26:06.356Z,100.00
2022-07-25T23:28:34.184Z,100.00
2022-07-25T23:31:02.031Z,100.00
2022-07-25T23:33:30.110Z,100.00
2022-07-25T23:35:58.211Z,100.00
2022-07-25T23:38:26.364Z,100.00
2022-07-25T23:40:55.616Z,100.00
2022-07-25T23:43:40.848Z,100.00
2022-07-25T23:46:11.588Z,100.00
2022-07-25T23:48:39.572Z,100.00
2022-07-25T23:51:07.784Z,100.00
2022-07-25T23:53:36.368Z,100.00
2022-07-25T23:56:06.126Z,100.00
2022-07-25T23:58:34.022Z,100.00
